Latest Coastal Weather Observations for South Johnstone

IDQ60701

Issued at 3:51 am EST Thursday 2 March 2017 (issued every 10 minutes, with the page automatically refreshed every 10 minutes)

About coastal observations | Map of coastal stations | Coastal observations for QLD | Marine services | Other Formats
Station Details ID: 032037 Name: SOUTH JOHNSTONE EXP STN Lat: -17.61 Lon: 146.00 Height: 18.3 m
Data from the previous 72 hours. | See also: Recent months at South Johnstone
Date/Time
EST
Temp
°C
Wind Pressure Rain since
9am
mm
Weather Cloud Vis
km
Sea
Height
m
Swell
Dir  Spd
kts
Gust
kts
hPa Trend Height
m
Period
s
Dir
02/03:30am 24.8 SW 2 6 1008.2 - 3.0 - - - - - - -
02/03:00am 24.8 CALM 0 2 1008.4 - 3.0 - - - - - - -
02/02:30am 24.9 WNW 1 4 1008.7 - 3.0 - - - - - - -
02/02:00am 26.0 SSW 4 6 1009.0 - 1.0 - - - - - - -
02/01:30am 24.8 CALM 0 3 1009.3 - 0.6 - - - - - - -
02/01:00am 24.8 CALM 0 4 1009.6 - 0.6 - - - - - - -
02/12:30am 24.8 WSW 4 6 1009.8 - 0.6 - - - - - - -
02/12:00am 24.8 W 2 5 1010.2 - 0.6 - - - - - - -
 
Date/Time
EST
Temp
°C
Wind Pressure Rain since
9am
mm
Weather Cloud Vis
km
Sea
Height
m
Swell
Dir  Spd
kts
Gust
kts
hPa Trend Height
m
Period
s
Dir
01/11:30pm 24.9 WSW 3 4 1010.7 - 0.6 - - - - - - -
01/11:00pm 25.5 SW 4 8 1011.1 - 0.6 - - - - - - -
01/10:30pm 25.4 WNW 1 4 1011.3 - 0.2 - - - - - - -
01/10:00pm 25.4 CALM 0 2 1011.3 - 0.2 - - - - - - -
01/09:30pm 25.7 WSW 2 4 1010.9 - 0.2 - - - - - - -
01/09:00pm 26.2 WSW 4 7 1010.8 - 0.2 - - - - - - -
01/08:30pm 27.5 SSW 4 7 1010.7 - 0.2 - - - - - - -
01/08:00pm 27.4 SSW 4 6 1010.4 - 0.2 - - - - - - -
01/07:30pm 27.6 SSW 3 7 1010.1 - 0.2 - - - - - - -
01/07:00pm 27.6 SSW 3 5 1009.8 - 0.2 - - - - - - -
01/06:30pm 27.8 S 3 7 1009.7 - 0.2 - - - - - - -
01/06:00pm 28.6 SSE 6 12 1009.4 - 0.2 - - - - - - -
01/05:30pm 28.8 SE 8 12 1009.2 - 0.2 - - - - - - -
01/05:00pm 29.1 SE 10 15 1009.0 - 0.2 - - - - - - -
01/04:30pm 29.5 SSE 9 16 1009.0 - 0.2 - - - - - - -
01/04:00pm 29.4 SSE 8 13 1008.9 - 0.2 - - - - - - -
01/03:30pm 30.2 SSE 10 16 1008.8 - 0.2 - - - - - - -
01/03:00pm 30.0 SE 11 15 1009.1 - 0.2 - - - - - - -
01/02:30pm 30.1 SE 10 14 1009.2 - 0.2 - - - - - - -
01/02:00pm 30.2 SSE 10 17 1009.7 - 0.2 - - - - - - -
01/01:30pm 30.3 SSE 10 16 1010.2 - 0.2 - - - - - - -
01/01:00pm 30.4 SSE 10 15 1010.5 - 0.2 - - - - - - -
01/12:30pm 30.4 SE 10 15 1010.9 - 0.2 - - - - - - -
01/12:00pm 29.5 SE 11 18 1011.0 - 0.2 - - - - - - -
01/11:30am 29.7 S 8 12 1011.4 - 0.2 - - - - - - -
01/11:00am 29.4 SSE 8 14 1011.6 - 0.2 - - - - - - -
01/10:30am 30.1 SE 10 13 1011.6 - 0.0 - - - - - - -
01/10:00am 28.1 S 7 11 1011.8 - 0.0 - - - - - - -
01/09:30am 28.3 S 7 10 1011.8 - 0.0 - - - - - - -
01/09:00am 27.5 S 7 11 1011.5 - 10.4 - - - - - - -
01/08:30am 27.3 SSW 6 10 1011.6 - 9.8 - - - - - - -
01/08:00am 26.9 S 4 7 1011.3 - 9.8 - - - - - - -
01/07:30am 24.5 CALM 0 1 1011.2 - 9.8 - - - - - - -
01/07:00am 23.8 NNW 2 4 1010.7 - 9.6 - - - - - - -
01/06:30am 23.6 NNW 1 5 1010.5 - 9.6 - - - - - - -
01/06:00am 24.9 SSW 4 10 1010.0 - 9.6 - - - - - - -
01/05:30am 23.6 W 3 5 1009.9 - 9.6 - - - - - - -
01/05:00am 23.8 SW 5 8 1009.7 - 9.6 - - - - - - -
01/04:30am 23.9 WSW 6 8 1009.6 - 9.6 - - - - - - -
01/04:00am 23.8 SE 4 6 1009.5 - 9.2 - - - - - - -
01/03:30am 24.0 NNE 4 9 1009.6 - 2.0 - - - - - - -
01/03:00am 23.8 N 1 4 1009.5 - 2.0 - - - - - - -
01/02:30am 23.7 W 4 6 1009.7 - 2.0 - - - - - - -
01/02:00am 23.6 CALM 0 0 1010.1 - 1.8 - - - - - - -
01/01:30am 23.6 CALM 0 0 1010.6 - 1.8 - - - - - - -
01/01:00am 23.7 WNW 1 4 1010.9 - 1.8 - - - - - - -
01/12:30am 23.8 WSW 3 5 1011.2 - 1.8 - - - - - - -
01/12:00am 23.8 NW 3 5 1011.5 - 1.4 - - - - - - -
 
Date/Time
EST
Temp
°C
Wind Pressure Rain since
9am
mm
Weather Cloud Vis
km
Sea
Height
m
Swell
Dir  Spd
kts
Gust
kts
hPa Trend Height
m
Period
s
Dir
28/11:30pm 23.9 CALM 0 3 1011.7 - 1.2 - - - - - - -
28/11:00pm 23.8 W 4 7 1011.9 - 1.2 - - - - - - -
28/10:30pm 23.9 CALM 0 0 1011.8 - 0.8 - - - - - - -
28/10:00pm 24.8 SSW 2 5 1011.9 - 0.8 - - - - - - -
28/09:30pm 24.7 CALM 0 0 1011.7 - 0.6 - - - - - - -
28/09:00pm 24.7 W 2 5 1011.4 - 0.6 - - - - - - -
28/08:30pm 25.2 WNW 1 4 1011.6 - 0.4 - - - - - - -
28/08:00pm 27.1 SSW 5 8 1011.2 - 0.0 - - - - - - -
28/07:30pm 27.3 SSW 5 7 1011.0 - 0.0 - - - - - - -
28/07:00pm 27.3 SSW 5 7 1010.9 - 0.0 - - - - - - -
28/06:30pm 27.3 S 5 8 1010.6 - 0.0 - - - - - - -
28/06:00pm 28.0 SSE 7 11 1010.2 - 0.0 - - - - - - -
28/05:30pm 28.2 SE 8 12 1010.1 - 0.0 - - - - - - -
28/05:00pm 28.7 SE 8 14 1009.6 - 0.0 - - - - - - -
28/04:30pm 29.1 SSE 7 12 1009.7 - 0.0 - - - - - - -
28/04:00pm 29.7 SE 10 15 1009.6 - 0.0 - - - - - - -
28/03:30pm 29.3 SSE 10 14 1009.6 - 0.0 - - - - - - -
28/03:00pm 29.7 SE 9 15 1009.6 - 0.0 - - - - - - -
28/02:30pm 29.8 SE 8 14 1009.9 - 0.0 - - - - - - -
28/02:00pm 29.9 ESE 7 13 1010.0 - 0.0 - - - - - - -
28/01:30pm 29.6 ESE 8 12 1010.3 - 0.0 - - - - - - -
28/01:00pm 26.4 ENE 9 16 1010.9 - 0.0 - - - - - - -
28/12:30pm 29.4 SE 11 17 1011.0 - 0.0 - - - - - - -
28/12:00pm 29.2 SE 10 15 1011.3 - 0.0 - - - - - - -
28/11:30am 28.3 SSW 4 7 1011.7 - 0.0 - - - - - - -
28/11:00am 28.9 S 8 18 1011.8 - 0.0 - - - - - - -
28/10:30am 28.9 S 9 15 1011.9 - 0.0 - - - - - - -
28/10:00am 27.6 SSE 10 17 1012.1 - 0.0 - - - - - - -
28/09:30am 27.0 S 8 13 1011.9 - 0.0 - - - - - - -
28/09:00am 27.9 S 6 11 1011.8 - 3.2 - - - - - - -
28/08:30am 27.1 S 5 9 1011.8 - 3.2 - - - - - - -
28/08:00am 26.8 SSW 7 11 1011.4 - 3.2 - - - - - - -
28/07:30am 24.0 CALM 0 0 1011.1 - 3.2 - - - - - - -
28/07:00am 23.4 CALM 0 3 1010.9 - 3.2 - - - - - - -
28/06:30am 23.0 CALM 0 0 1010.9 - 3.2 - - - - - - -
28/06:00am 22.9 CALM 0 3 1010.5 - 3.0 - - - - - - -
28/05:30am 22.8 NW 2 5 1010.1 - 3.0 - - - - - - -
28/05:00am 22.7 SSW 3 7 1010.1 - 3.0 - - - - - - -
28/04:30am 22.7 NW 1 5 1010.1 - 3.0 - - - - - - -
28/04:00am 22.8 W 2 4 1010.2 - 3.0 - - - - - - -
28/03:30am 22.9 WNW 2 4 1010.3 - 3.0 - - - - - - -
28/03:00am 22.9 WNW 3 4 1010.2 - 3.0 - - - - - - -
28/02:30am 23.0 WNW 1 3 1010.5 - 3.0 - - - - - - -
28/02:00am 23.0 NW 1 5 1010.8 - 3.0 - - - - - - -
28/01:30am 22.9 CALM 0 0 1011.1 - 3.0 - - - - - - -
28/01:00am 22.9 WSW 3 6 1011.2 - 3.0 - - - - - - -
28/12:30am 22.9 WNW 2 5 1011.7 - 3.0 - - - - - - -
28/12:00am 23.0 WNW 2 5 1011.9 - 3.0 - - - - - - -
 
Date/Time
EST
Temp
°C
Wind Pressure Rain since
9am
mm
Weather Cloud Vis
km
Sea
Height
m
Swell
Dir  Spd
kts
Gust
kts
hPa Trend Height
m
Period
s
Dir
27/11:30pm 23.0 W 4 6 1012.6 - 3.0 - - - - - - -
27/11:00pm 24.3 WNW 3 12 1013.0 - 2.6 - - - - - - -
27/10:30pm 24.3 SW 4 7 1012.4 - 2.6 - - - - - - -
27/10:00pm 24.7 W 3 5 1012.2 - 2.6 - - - - - - -
27/09:30pm 26.6 S 4 6 1011.9 - 0.2 - - - - - - -
27/09:00pm 26.7 S 4 7 1011.6 - 0.2 - - - - - - -
27/08:30pm 26.6 S 4 6 1011.5 - 0.2 - - - - - - -
27/08:00pm 25.7 S 3 5 1011.2 - 0.2 - - - - - - -
27/07:30pm 25.6 CALM 0 0 1010.8 - 0.2 - - - - - - -
27/07:00pm 26.5 CALM 0 0 1010.5 - 0.2 - - - - - - -
27/06:30pm 27.6 S 5 7 1010.1 - 0.2 - - - - - - -
27/06:00pm 28.3 SSE 6 11 1010.0 - 0.2 - - - - - - -
27/05:30pm 29.1 SE 7 12 1010.0 - 0.2 - - - - - - -
27/05:00pm 29.4 SE 8 14 1009.8 - 0.2 - - - - - - -
27/04:30pm 29.6 SE 9 13 1009.7 - 0.2 - - - - - - -
27/04:00pm 30.1 SE 9 13 1009.7 - 0.2 - - - - - - -
27/03:30pm 30.2 SSE 9 14 1009.6 - 0.2 - - - - - - -
27/03:00pm 29.9 SE 8 13 1009.7 - 0.2 - - - - - - -
27/02:30pm 29.5 SE 9 13 1010.0 - 0.2 - - - - - - -
27/02:00pm 29.5 ESE 7 13 1010.4 - 0.2 - - - - - - -
27/01:30pm 30.0 SE 10 16 1010.7 - 0.2 - - - - - - -
27/01:00pm 30.0 SSE 9 15 1010.9 - 0.2 - - - - - - -
27/12:30pm 30.3 SE 8 14 1011.3 - 0.2 - - - - - - -
27/12:00pm 29.8 SE 10 15 1011.8 - 0.2 - - - - - - -
27/11:30am 30.4 SE 9 14 1012.1 - 0.2 - - - - - - -
27/11:00am 30.3 ESE 10 16 1012.3 - 0.2 - - - - - - -
27/10:30am 29.8 SE 9 15 1012.4 - 0.2 - - - - - - -
27/10:00am 29.7 SSE 7 11 1012.6 - 0.2 - - - - - - -
27/09:30am 29.6 SE 8 14 1012.6 - 0.2 - - - - - - -
27/09:00am 29.0 SSE 9 14 1012.5 - 6.6 - - - - - - -
27/08:30am 28.3 S 6 9 1012.3 - 6.6 - - - - - - -
27/08:00am 27.8 S 3 8 1012.1 - 6.6 - - - - - - -
27/07:30am 26.5 S 5 8 1011.8 - 6.6 - - - - - - -
27/07:00am 24.3 SW 4 6 1011.3 - 6.6 - - - - - - -
27/06:30am 23.4 CALM 0 1 1011.0 - 6.6 - - - - - - -
27/06:00am 23.8 CALM 0 0 1010.6 - 6.6 - - - - - - -
27/05:30am 25.6 SSW 4 7 1010.4 - 6.4 - - - - - - -
27/05:00am 25.4 SSW 3 5 1010.2 - 6.4 - - - - - - -
27/04:30am 25.6 S 4 7 1010.0 - 6.4 - - - - - - -
27/04:00am 24.4 S 4 6 1009.7 - 6.4 - - - - - - -

Other Formats:

Comma delimited format used in spreadsheet applications
http://www.bom.gov.au/fwo/IDQ60701/IDQ60701.95292.axf

JavaScript Object Notation format (JSON) in row-major order
http://www.bom.gov.au/fwo/IDQ60701/IDQ60701.95292.json